Time;durP1;ratioP1;P1;durP2;ratioP2;P2;SDS_P1;SDS_P2;PMS_P1;PMS_P2;Temp;Humidity;BMP_temperature;BMP_pressure;BME280_temperature;BME280_humidity;BME280_pressure;Samples;Min_cycle;Max_cycle;Signal;HPM_P1;HPM_P2
2022/11/17 00:00:44;;;;;;;1.83;1.20;;;18.40;61.10;;;;;;6154205;23;20601;-89
2022/11/17 00:03:13;;;;;;;2.08;1.20;;;18.40;61.10;;;;;;6203923;23;20180;-89
2022/11/17 00:05:55;;;;;;;2.15;1.17;;;18.40;61.50;;;;;;6169361;23;20491;-89
2022/11/17 00:08:26;;;;;;;1.98;1.30;;;18.40;61.40;;;;;;6119652;23;20154;-89
2022/11/17 00:10:59;;;;;;;1.92;1.23;;;18.40;61.10;;;;;;6144749;23;20155;-90
2022/11/17 00:16:25;;;;;;;2.58;1.48;;;18.40;61.10;;;;;;6136496;23;20253;-90
2022/11/17 00:21:36;;;;;;;2.33;1.42;;;18.30;61.60;;;;;;6159709;23;20212;-88
2022/11/17 00:24:15;;;;;;;4.65;1.40;;;18.30;61.60;;;;;;6114455;23;20156;-89
2022/11/17 00:27:06;;;;;;;2.58;1.27;;;18.30;61.60;;;;;;6113814;23;20231;-89
2022/11/17 00:29:39;;;;;;;3.10;1.20;;;18.30;61.80;;;;;;6113672;23;20235;-88
2022/11/17 00:35:28;;;;;;;2.45;1.10;;;18.30;61.70;;;;;;6136763;23;20611;-89
2022/11/17 00:40:41;;;;;;;3.05;1.23;;;18.30;61.80;;;;;;6167168;23;20149;-89
2022/11/17 00:43:24;;;;;;;3.70;1.23;;;18.30;62.00;;;;;;6158474;23;20149;-90
2022/11/17 00:45:57;;;;;;;2.75;1.20;;;18.30;61.80;;;;;;6161716;23;20168;-89
2022/11/17 00:48:24;;;;;;;3.08;1.40;;;18.30;61.60;;;;;;6180390;23;20176;-89
2022/11/17 00:50:56;;;;;;;2.45;1.30;;;18.30;61.60;;;;;;6258773;23;20613;-89
2022/11/17 00:53:25;;;;;;;3.05;1.20;;;18.30;61.70;;;;;;6210024;22;20199;-90
2022/11/17 00:55:51;;;;;;;3.38;1.38;;;18.30;62.00;;;;;;6266419;22;20149;-89
2022/11/17 00:58:22;;;;;;;2.35;1.13;;;18.30;61.90;;;;;;6265431;22;20144;-89
2022/11/17 01:00:50;;;;;;;2.40;1.30;;;18.30;62.10;;;;;;6213281;22;20156;-89
2022/11/17 01:03:22;;;;;;;1.98;1.00;;;18.30;61.80;;;;;;6265439;22;20227;-88
2022/11/17 01:05:55;;;;;;;2.70;1.23;;;18.30;62.10;;;;;;6237917;22;20149;-88
2022/11/17 01:08:25;;;;;;;2.30;1.08;;;18.30;61.90;;;;;;6166059;23;20174;-90
2022/11/17 01:11:02;;;;;;;2.83;1.30;;;18.30;61.80;;;;;;6117915;23;20162;-89
2022/11/17 01:13:34;;;;;;;3.90;1.00;;;18.30;62.20;;;;;;6118292;23;20186;-89
2022/11/17 01:16:11;;;;;;;2.55;1.23;;;18.30;62.20;;;;;;6141689;23;20159;-89
2022/11/17 01:18:45;;;;;;;4.43;1.50;;;18.20;62.10;;;;;;6117509;23;20155;-89
2022/11/17 01:21:22;;;;;;;3.10;1.60;;;18.20;62.40;;;;;;6118497;23;20162;-88
2022/11/17 01:24:01;;;;;;;3.47;1.40;;;18.20;61.80;;;;;;6118275;23;20595;-89
2022/11/17 01:26:43;;;;;;;3.03;1.30;;;18.20;62.50;;;;;;6117813;23;20162;-89
2022/11/17 01:29:11;;;;;;;1.75;1.08;;;18.30;62.70;;;;;;6117400;23;20155;-89
2022/11/17 01:31:39;;;;;;;1.73;1.17;;;18.20;62.50;;;;;;6140714;23;20182;-89
2022/11/17 01:34:27;;;;;;;1.80;1.10;;;18.20;61.90;;;;;;6169998;23;20178;-88
2022/11/17 01:39:47;;;;;;;1.85;1.23;;;18.20;62.10;;;;;;6156923;23;20155;-88
2022/11/17 01:42:30;;;;;;;3.45;1.10;;;18.20;62.30;;;;;;6092889;23;20215;-89
2022/11/17 01:45:01;;;;;;;2.95;1.50;;;18.20;62.10;;;;;;6092631;23;20166;-89
2022/11/17 01:47:41;;;;;;;2.72;1.20;;;18.20;62.60;;;;;;6117967;23;20144;-89
2022/11/17 01:50:29;;;;;;;4.28;1.60;;;18.20;62.50;;;;;;6094363;23;20195;-90
2022/11/17 01:53:01;;;;;;;3.13;1.45;;;18.20;62.30;;;;;;6116633;23;20191;-90
2022/11/17 01:55:42;;;;;;;1.67;1.00;;;18.20;62.40;;;;;;6138973;23;20149;-89
2022/11/17 01:58:13;;;;;;;3.03;1.25;;;18.20;62.50;;;;;;6152053;23;20228;-89
2022/11/17 02:00:39;;;;;;;2.67;1.40;;;18.20;62.50;;;;;;6175952;23;20167;-88
2022/11/17 02:03:13;;;;;;;3.78;1.40;;;18.20;62.40;;;;;;6176455;23;20150;-88
2022/11/17 02:05:56;;;;;;;1.88;1.17;;;18.20;62.40;;;;;;6151178;23;20177;-89
2022/11/17 02:08:30;;;;;;;1.92;1.15;;;18.20;62.70;;;;;;6154560;23;20153;-89
2022/11/17 02:11:00;;;;;;;1.75;1.00;;;18.20;62.70;;;;;;6187499;22;20183;-89
2022/11/17 02:13:29;;;;;;;2.63;1.17;;;18.20;62.50;;;;;;6262199;22;20181;-89
2022/11/17 02:16:09;;;;;;;2.08;1.23;;;18.10;62.40;;;;;;6262617;22;20141;-89
2022/11/17 02:18:41;;;;;;;1.83;0.90;;;18.20;62.30;;;;;;6214617;22;20172;-88
2022/11/17 02:21:26;;;;;;;3.47;1.48;;;18.20;62.60;;;;;;6213046;22;20225;-89
2022/11/17 02:24:30;;;;;;;3.03;1.10;;;18.20;62.30;;;;;;6287406;22;20212;-89
2022/11/17 02:27:21;;;;;;;3.00;1.20;;;18.20;62.70;;;;;;6234674;23;20216;-89
2022/11/17 02:30:17;;;;;;;2.28;1.20;;;18.10;62.40;;;;;;6208717;23;20157;-88
2022/11/17 02:33:20;;;;;;;3.35;1.42;;;18.20;62.50;;;;;;6248241;23;20173;-90
2022/11/17 02:35:51;;;;;;;2.33;1.30;;;18.20;62.60;;;;;;6230937;23;20152;-89
2022/11/17 02:38:55;;;;;;;2.25;1.10;;;18.20;62.90;;;;;;6205127;23;20145;-89
2022/11/17 02:41:36;;;;;;;2.78;1.40;;;18.10;62.80;;;;;;6195667;23;20147;-87
2022/11/17 02:44:38;;;;;;;;;;;;;;;;;;;;;
2022/11/17 02:47:21;;;;;;;2.47;1.20;;;18.10;62.60;;;;;;6063232;23;20179;-88
2022/11/17 02:49:58;;;;;;;2.67;1.15;;;18.10;62.60;;;;;;6094173;23;20222;-88
2022/11/17 02:52:27;;;;;;;2.45;1.20;;;18.10;62.40;;;;;;6081124;23;20188;-89
2022/11/17 02:55:03;;;;;;;3.30;1.30;;;18.10;62.50;;;;;;6105673;23;20244;-89
2022/11/17 02:57:39;;;;;;;3.50;1.45;;;18.10;62.50;;;;;;6081493;23;20179;-89
2022/11/17 03:00:08;;;;;;;2.00;1.20;;;18.10;62.70;;;;;;6104814;23;20306;-87
2022/11/17 03:03:06;;;;;;;3.08;1.45;;;18.10;62.80;;;;;;6105857;23;20157;-89
2022/11/17 03:05:38;;;;;;;1.13;0.90;;;18.20;62.80;;;;;;6113725;23;20234;-89
2022/11/17 03:08:44;;;;;;;2.55;1.30;;;18.10;62.80;;;;;;6135634;23;20176;-89
2022/11/17 03:11:14;;;;;;;1.80;1.10;;;18.10;63.00;;;;;;6080209;23;20596;-89
2022/11/17 03:13:55;;;;;;;2.80;1.17;;;18.10;62.90;;;;;;6049118;23;20153;-89
2022/11/17 03:16:27;;;;;;;1.88;1.13;;;18.10;62.80;;;;;;6017686;23;20155;-90
2022/11/17 03:19:14;;;;;;;2.75;1.02;;;18.10;62.90;;;;;;6045489;23;20153;-89
2022/11/17 03:22:00;;;;;;;2.78;1.20;;;18.10;62.90;;;;;;6026686;23;20154;-90
2022/11/17 03:24:28;;;;;;;2.70;1.30;;;18.10;63.30;;;;;;6049963;23;20153;-89
2022/11/17 03:27:10;;;;;;;1.05;0.93;;;18.10;63.00;;;;;;6049670;23;20169;-88
2022/11/17 03:29:40;;;;;;;2.47;1.10;;;18.10;62.90;;;;;;6092059;23;20208;-90
2022/11/17 03:32:16;;;;;;;3.08;1.00;;;18.10;63.20;;;;;;6090212;23;20254;-89
2022/11/17 03:34:57;;;;;;;2.60;1.27;;;18.00;63.20;;;;;;6086885;23;20255;-89
2022/11/17 03:37:30;;;;;;;2.28;1.17;;;18.00;63.10;;;;;;6057938;23;20156;-89
2022/11/17 03:40:09;;;;;;;2.85;1.30;;;18.10;63.00;;;;;;6081527;23;20160;-89
2022/11/17 03:42:37;;;;;;;3.03;1.08;;;18.00;63.20;;;;;;5936015;24;20164;-90
2022/11/17 03:45:13;;;;;;;2.50;1.20;;;18.00;62.90;;;;;;5984540;23;20244;-88
2022/11/17 03:47:47;;;;;;;1.73;1.13;;;18.00;63.10;;;;;;6051283;23;20154;-89
2022/11/17 03:50:17;;;;;;;2.58;1.13;;;18.00;63.00;;;;;;6070143;23;20251;-88
2022/11/17 03:52:47;;;;;;;1.85;1.25;;;18.00;63.10;;;;;;6145513;23;20178;-88
2022/11/17 03:55:16;;;;;;;2.00;1.30;;;17.90;63.20;;;;;;6120636;23;20170;-88
2022/11/17 03:58:02;;;;;;;1.73;1.05;;;18.00;63.10;;;;;;6020749;23;20489;-88
2022/11/17 04:00:37;;;;;;;2.00;1.00;;;18.00;63.30;;;;;;5983143;23;20208;-88
2022/11/17 04:03:05;;;;;;;3.40;1.05;;;18.00;63.20;;;;;;6056437;23;20159;-89
2022/11/17 04:05:34;;;;;;;1.75;1.10;;;18.00;63.30;;;;;;6081996;23;20181;-89
2022/11/17 04:08:13;;;;;;;3.55;1.17;;;18.00;63.20;;;;;;6081133;23;20148;-88
2022/11/17 04:16:24;;;;;;;2.13;1.17;;;18.00;63.10;;;;;;6113858;23;20156;-89
2022/11/17 04:18:55;;;;;;;1.73;1.42;;;18.00;63.00;;;;;;6062549;23;20153;-89
2022/11/17 04:21:25;;;;;;;1.58;1.13;;;18.00;63.20;;;;;;6086809;23;20152;-88
2022/11/17 04:24:01;;;;;;;2.03;1.30;;;18.00;63.30;;;;;;6087586;23;20219;-89
2022/11/17 04:29:16;;;;;;;2.85;1.10;;;18.00;63.30;;;;;;6154597;23;20186;-88
2022/11/17 04:32:21;;;;;;;2.10;1.30;;;18.00;63.40;;;;;;6050969;23;20180;-87
2022/11/17 04:34:53;;;;;;;2.65;1.00;;;18.00;63.50;;;;;;6210629;23;20159;-89
2022/11/17 04:37:24;;;;;;;2.50;1.55;;;17.90;63.30;;;;;;6182190;23;20161;-89
2022/11/17 04:39:50;;;;;;;1.80;1.20;;;18.00;63.30;;;;;;6181419;23;20153;-89
2022/11/17 04:42:16;;;;;;;2.13;1.20;;;18.00;63.50;;;;;;6207076;23;20211;-88
2022/11/17 04:44:50;;;;;;;2.88;1.35;;;18.00;63.50;;;;;;6208778;23;20154;-88
2022/11/17 04:47:23;;;;;;;2.00;1.33;;;18.00;63.50;;;;;;6158775;23;20314;-87
2022/11/17 04:49:53;;;;;;;1.77;1.35;;;18.00;63.30;;;;;;6229409;22;20199;-88
2022/11/17 04:52:19;;;;;;;4.55;1.52;;;17.90;63.40;;;;;;6191163;22;20253;-88
2022/11/17 04:54:52;;;;;;;2.25;1.25;;;18.00;63.60;;;;;;6240190;22;20259;-89
2022/11/17 04:57:22;;;;;;;2.83;1.38;;;17.90;63.40;;;;;;6217703;22;20144;-88
2022/11/17 04:59:58;;;;;;;1.30;0.98;;;18.00;63.20;;;;;;6194951;22;20171;-88
2022/11/17 05:02:24;;;;;;;2.78;1.15;;;18.00;63.60;;;;;;6195481;22;20152;-88
2022/11/17 05:05:07;;;;;;;1.48;1.10;;;18.00;63.50;;;;;;6270373;22;20148;-88
2022/11/17 05:07:33;;;;;;;3.08;1.15;;;18.00;63.50;;;;;;6137570;23;20149;-88
2022/11/17 05:10:08;;;;;;;1.92;0.85;;;18.00;63.40;;;;;;6211143;23;20167;-88
2022/11/17 05:18:30;;;;;;;3.20;1.52;;;18.00;63.40;;;;;;6169411;23;20161;-88
2022/11/17 05:21:05;;;;;;;1.80;0.90;;;17.90;63.50;;;;;;6157602;23;20547;-88
2022/11/17 05:26:12;;;;;;;1.85;1.02;;;18.00;63.00;;;;;;6203135;23;20134;-88
2022/11/17 05:28:41;;;;;;;2.20;1.05;;;18.00;63.40;;;;;;6200109;23;20154;-89
2022/11/17 05:31:09;;;;;;;1.88;1.10;;;18.00;63.50;;;;;;6200409;23;20161;-90
2022/11/17 05:33:35;;;;;;;1.77;1.05;;;18.00;63.50;;;;;;6200616;23;20188;-89
2022/11/17 05:36:07;;;;;;;2.42;1.20;;;18.00;63.40;;;;;;6200749;23;20158;-89
2022/11/17 05:38:45;;;;;;;1.60;1.00;;;18.00;63.60;;;;;;6183166;22;20152;-90
2022/11/17 05:41:12;;;;;;;1.95;1.10;;;18.00;63.60;;;;;;6212188;22;20149;-89
2022/11/17 05:43:43;;;;;;;2.22;1.02;;;17.90;63.60;;;;;;6263390;22;20155;-90
2022/11/17 05:46:09;;;;;;;2.10;1.20;;;17.90;63.40;;;;;;6211343;22;20239;-90
2022/11/17 05:48:35;;;;;;;1.60;1.30;;;18.00;63.60;;;;;;6249084;22;20156;-89
2022/11/17 05:51:08;;;;;;;1.73;1.00;;;17.90;63.50;;;;;;6205371;23;20191;-89
2022/11/17 05:53:40;;;;;;;1.83;1.13;;;17.90;63.10;;;;;;6179630;23;20196;-90
2022/11/17 05:56:20;;;;;;;1.50;1.08;;;17.90;63.20;;;;;;6157169;23;20241;-89
2022/11/17 05:58:55;;;;;;;2.20;1.40;;;17.90;63.60;;;;;;6231245;23;20137;-90
2022/11/17 06:01:28;;;;;;;2.13;1.25;;;17.90;63.60;;;;;;6156866;23;20156;-89
2022/11/17 06:04:02;;;;;;;2.25;1.17;;;17.90;63.00;;;;;;6157377;23;20155;-89
2022/11/17 06:06:39;;;;;;;2.45;1.10;;;17.90;63.00;;;;;;6157449;23;20158;-90
2022/11/17 06:09:13;;;;;;;2.97;0.95;;;17.90;62.60;;;;;;6157706;23;20161;-89
2022/11/17 06:11:45;;;;;;;1.60;1.00;;;18.00;62.50;;;;;;6163809;23;20183;-90
2022/11/17 06:14:14;;;;;;;1.75;1.00;;;17.90;61.90;;;;;;6112648;23;20209;-87
2022/11/17 06:16:55;;;;;;;2.17;1.08;;;18.00;62.20;;;;;;6137355;23;20733;-89
2022/11/17 06:19:30;;;;;;;4.07;1.15;;;18.00;62.10;;;;;;6113430;23;20151;-88
2022/11/17 06:22:03;;;;;;;1.92;1.05;;;18.10;61.60;;;;;;6112475;23;20218;-89
2022/11/17 06:24:28;;;;;;;2.60;1.05;;;18.10;61.20;;;;;;6089054;23;20155;-89
2022/11/17 06:26:57;;;;;;;1.35;1.10;;;18.20;61.00;;;;;;6088616;23;20192;-90
2022/11/17 06:29:26;;;;;;;1.55;1.00;;;18.20;61.00;;;;;;6091095;23;20159;-90
2022/11/17 06:31:56;;;;;;;3.15;1.00;;;18.20;61.20;;;;;;6113105;23;20179;-89
2022/11/17 06:34:27;;;;;;;1.73;1.10;;;18.20;60.90;;;;;;6113144;23;20619;-89
2022/11/17 06:36:55;;;;;;;0.95;0.85;;;18.20;60.90;;;;;;6114717;23;20274;-90
2022/11/17 06:39:23;;;;;;;1.92;0.82;;;18.20;60.70;;;;;;6137874;23;20131;-88
2022/11/17 06:41:49;;;;;;;1.50;0.98;;;18.20;61.00;;;;;;6080400;23;20157;-89
2022/11/17 06:44:14;;;;;;;1.35;0.88;;;18.20;61.00;;;;;;6099889;23;20211;-89
2022/11/17 06:46:40;;;;;;;0.98;0.75;;;18.20;60.80;;;;;;6099456;23;20600;-88
2022/11/17 06:49:06;;;;;;;1.02;0.82;;;18.30;60.30;;;;;;6251858;23;20723;-89
2022/11/17 06:51:33;;;;;;;2.15;0.80;;;18.20;60.70;;;;;;6177481;23;20161;-89
2022/11/17 06:54:07;;;;;;;1.63;0.85;;;18.30;60.40;;;;;;6257264;22;20149;-89
2022/11/17 06:56:33;;;;;;;3.10;1.02;;;18.30;60.30;;;;;;6258717;22;20153;-89
2022/11/17 06:59:03;;;;;;;1.55;0.90;;;18.30;60.20;;;;;;6233233;22;20141;-89
2022/11/17 07:01:32;;;;;;;1.75;1.10;;;18.30;60.60;;;;;;6232793;22;20154;-88
2022/11/17 07:03:59;;;;;;;1.58;1.00;;;18.30;60.70;;;;;;6232643;22;20153;-88
2022/11/17 07:06:24;;;;;;;1.20;0.73;;;18.30;60.60;;;;;;6230888;22;20149;-88
2022/11/17 07:08:50;;;;;;;4.47;1.15;;;18.30;60.70;;;;;;6231864;22;20144;-88
2022/11/17 07:11:16;;;;;;;2.65;0.90;;;18.30;60.30;;;;;;6231952;22;20149;-88
2022/11/17 07:13:44;;;;;;;1.45;0.77;;;18.30;60.10;;;;;;6230767;22;20311;-87
2022/11/17 07:16:13;;;;;;;1.45;1.02;;;18.30;59.90;;;;;;6229907;22;20144;-87
2022/11/17 07:18:40;;;;;;;1.30;0.75;;;18.30;60.20;;;;;;6230323;22;20199;-88
2022/11/17 07:21:08;;;;;;;1.88;0.88;;;18.30;60.50;;;;;;6203862;22;20298;-87
2022/11/17 07:23:34;;;;;;;2.35;0.80;;;18.30;60.00;;;;;;6229597;22;20227;-87
2022/11/17 07:26:00;;;;;;;1.30;0.93;;;18.30;60.20;;;;;;6228890;22;20571;-87
2022/11/17 07:28:25;;;;;;;1.55;0.93;;;18.30;60.00;;;;;;6237943;22;20166;-87
2022/11/17 07:30:53;;;;;;;1.23;0.80;;;18.30;60.50;;;;;;6230436;22;20146;-89
2022/11/17 07:33:27;;;;;;;1.65;0.95;;;18.40;60.30;;;;;;6233663;22;20168;-87
2022/11/17 07:36:16;;;;;;;;;;;;;;;;;;;;;
2022/11/17 07:38:42;;;;;;;1.13;0.98;;;18.30;60.60;;;;;;6135093;23;20184;-85
2022/11/17 07:41:25;;;;;;;1.77;0.95;;;18.30;60.60;;;;;;6146486;23;20154;-85
2022/11/17 07:44:07;;;;;;;2.00;0.80;;;18.40;60.50;;;;;;6168747;23;20161;-87
2022/11/17 07:46:39;;;;;;;2.47;1.05;;;18.40;60.20;;;;;;6167116;23;20253;-85
2022/11/17 07:49:08;;;;;;;2.80;0.80;;;18.40;60.20;;;;;;6107431;23;20191;-87
2022/11/17 07:51:46;;;;;;;1.63;1.02;;;18.40;59.80;;;;;;6109594;23;20156;-83
2022/11/17 07:54:24;;;;;;;2.10;0.98;;;18.40;60.00;;;;;;6109251;23;20154;-86
2022/11/17 07:56:56;;;;;;;2.90;1.08;;;18.50;59.40;;;;;;6073474;23;20153;-85
2022/11/17 07:59:25;;;;;;;0.93;0.73;;;18.50;59.20;;;;;;6051718;23;20280;-85
2022/11/17 08:02:05;;;;;;;1.35;0.80;;;18.50;59.10;;;;;;6073861;23;20240;-85
2022/11/17 08:04:45;;;;;;;1.27;0.88;;;18.60;59.80;;;;;;6019891;23;20168;-85
2022/11/17 08:07:22;;;;;;;1.35;0.80;;;18.60;58.70;;;;;;6042745;23;20185;-85
2022/11/17 08:09:51;;;;;;;2.80;0.90;;;18.60;58.70;;;;;;6041673;23;20532;-85
2022/11/17 08:12:26;;;;;;;1.65;0.90;;;18.70;58.50;;;;;;5933398;23;20307;-85
2022/11/17 08:14:57;;;;;;;2.58;1.13;;;18.70;58.90;;;;;;6029091;23;20183;-85
2022/11/17 08:17:41;;;;;;;1.88;1.02;;;18.70;59.30;;;;;;5921159;23;20160;-85
2022/11/17 08:20:26;;;;;;;2.65;0.80;;;18.70;59.20;;;;;;6110590;23;20155;-85
2022/11/17 08:22:58;;;;;;;0.80;0.73;;;18.70;59.40;;;;;;6141886;23;20151;-86
2022/11/17 08:25:43;;;;;;;1.90;0.85;;;18.70;59.60;;;;;;6139716;23;20291;-87
2022/11/17 08:32:24;;;;;;;;;;;;;;;;;;;;;
2022/11/17 08:35:13;;;;;;;;;;;;;;;;;;;;;
2022/11/17 08:37:43;;;;;;;3.92;1.00;;;18.60;59.00;;;;;;5971161;24;20183;-85
2022/11/17 08:40:11;;;;;;;3.22;1.00;;;18.80;59.10;;;;;;5994168;23;20136;-84
2022/11/17 08:53:31;;;;;;;2.17;0.88;;;18.80;60.70;;;;;;5964731;24;20239;-87
2022/11/17 09:00:18;;;;;;;2.50;1.08;;;18.80;59.70;;;;;;5901173;24;20510;-87
2022/11/17 09:02:44;;;;;;;5.03;0.98;;;18.80;59.40;;;;;;5826167;24;20529;-87
2022/11/17 09:09:04;;;;;;;;;;;;;;;;;;;;;
2022/11/17 09:12:48;;;;;;;;;;;;;;;;;;;;;
2022/11/17 09:15:09;;;;;;;3.80;1.20;;;18.80;59.60;;;;;;5754906;24;20163;-86
2022/11/17 09:29:19;;;;;;;3.17;0.80;;;18.80;59.40;;;;;;5706315;25;20536;-85
2022/11/17 09:31:48;;;;;;;1.52;0.82;;;18.80;59.00;;;;;;5722579;25;20162;-85
2022/11/17 09:34:36;;;;;;;2.92;0.93;;;18.90;58.50;;;;;;5700512;25;20578;-84
2022/11/17 09:37:25;;;;;;;;;;;;;;;;;;;;;
2022/11/17 10:08:09;;;;;;;5.13;1.20;;;19.00;58.40;;;;;;5927814;23;4354877;-86
2022/11/17 10:11:30;;;;;;;3.55;0.93;;;19.00;59.10;;;;;;6086429;23;20601;-87
2022/11/17 10:14:15;;;;;;;3.03;1.00;;;19.00;59.70;;;;;;5965926;24;20167;-84
2022/11/17 10:17:18;;;;;;;3.60;1.15;;;19.00;59.30;;;;;;5931434;24;20156;-87
2022/11/17 10:20:16;;;;;;;6.18;1.20;;;19.10;59.40;;;;;;5895653;24;20211;-88
2022/11/17 10:22:51;;;;;;;5.70;1.10;;;19.00;59.30;;;;;;5867709;24;20284;-87
2022/11/17 10:25:59;;;;;;;;;;;;;;;;;;;;;
2022/11/17 10:28:39;;;;;;;6.68;1.20;;;19.10;59.50;;;;;;5840584;24;20181;-86
2022/11/17 10:31:16;;;;;;;7.45;1.23;;;19.00;59.20;;;;;;5840185;24;20158;-88
2022/11/17 10:34:07;;;;;;;5.75;1.27;;;19.00;58.70;;;;;;5870612;24;20161;-84
2022/11/17 10:36:52;;;;;;;2.10;0.93;;;19.00;58.90;;;;;;5851858;24;20158;-82
2022/11/17 10:39:36;;;;;;;5.03;0.95;;;18.90;58.40;;;;;;5789546;24;20188;-85
2022/11/17 10:42:27;;;;;;;4.72;1.15;;;18.90;58.90;;;;;;5750643;25;20240;-85
2022/11/17 10:44:57;;;;;;;3.85;1.02;;;19.00;59.20;;;;;;5749482;24;20628;-87
2022/11/17 10:47:40;;;;;;;1.40;0.80;;;18.90;58.90;;;;;;5801244;24;20170;-84
2022/11/17 10:50:24;;;;;;;3.72;1.02;;;18.90;59.00;;;;;;5770041;24;20184;-87
2022/11/17 10:52:51;;;;;;;4.03;1.08;;;18.90;59.00;;;;;;5845226;24;20164;-85
2022/11/17 10:55:32;;;;;;;3.78;1.00;;;18.90;58.90;;;;;;5915168;24;20244;-84
2022/11/17 10:58:07;;;;;;;3.38;1.00;;;18.90;58.70;;;;;;5914012;24;20184;-84
2022/11/17 11:00:38;;;;;;;2.97;1.05;;;18.90;58.90;;;;;;5908029;24;20664;-83
2022/11/17 11:03:17;;;;;;;4.07;0.90;;;18.90;58.70;;;;;;5910552;24;20172;-84
2022/11/17 11:06:19;;;;;;;4.05;1.00;;;18.90;58.30;;;;;;5885232;24;20169;-86
2022/11/17 11:09:20;;;;;;;3.60;1.17;;;19.00;58.40;;;;;;5887878;24;20189;-83
2022/11/17 11:12:01;;;;;;;1.98;1.13;;;18.90;58.50;;;;;;5891516;24;20165;-84
2022/11/17 11:14:35;;;;;;;1.75;0.82;;;19.00;58.20;;;;;;5893117;24;20185;-85
2022/11/17 11:17:06;;;;;;;1.92;0.93;;;18.90;58.10;;;;;;5940399;24;20191;-85
2022/11/17 11:19:36;;;;;;;2.60;1.20;;;18.90;57.70;;;;;;5932836;24;20244;-84
2022/11/17 11:22:26;;;;;;;3.80;1.08;;;18.90;57.70;;;;;;5931924;24;20161;-85
2022/11/17 11:25:08;;;;;;;3.38;1.00;;;18.90;57.50;;;;;;5905359;24;20165;-85
2022/11/17 11:27:48;;;;;;;2.15;1.00;;;18.90;57.30;;;;;;5927225;24;20173;-86
2022/11/17 11:30:16;;;;;;;3.78;0.98;;;19.00;57.30;;;;;;5927553;24;20235;-85
2022/11/17 11:33:22;;;;;;;3.10;0.82;;;19.00;57.00;;;;;;5926848;24;20225;-85
2022/11/17 11:36:18;;;;;;;2.10;0.90;;;19.00;56.80;;;;;;5926881;24;20156;-85
2022/11/17 11:39:04;;;;;;;3.92;1.10;;;18.90;57.10;;;;;;5897868;24;20248;-85
2022/11/17 11:41:54;;;;;;;5.20;1.20;;;18.90;57.10;;;;;;5911489;24;20149;-85
2022/11/17 11:44:44;;;;;;;4.40;1.08;;;19.00;57.20;;;;;;5897743;23;20184;-85
2022/11/17 11:47:49;;;;;;;3.40;1.00;;;18.90;57.10;;;;;;5990988;23;20170;-85
2022/11/17 11:50:41;;;;;;;2.33;0.98;;;18.90;57.50;;;;;;6029251;23;20163;-84
2022/11/17 11:53:30;;;;;;;2.10;1.00;;;18.90;58.40;;;;;;5949261;23;20160;-85
2022/11/17 11:56:18;;;;;;;2.88;1.00;;;18.90;58.10;;;;;;6033494;23;20153;-84
2022/11/17 11:59:05;;;;;;;3.63;0.95;;;18.90;57.10;;;;;;5961163;23;20206;-84
2022/11/17 12:01:49;;;;;;;2.88;1.13;;;18.90;57.70;;;;;;5982640;23;20153;-86
2022/11/17 12:04:45;;;;;;;1.63;0.73;;;18.90;58.00;;;;;;6057388;23;20221;-88
2022/11/17 12:07:38;;;;;;;2.13;0.90;;;18.80;58.10;;;;;;5961712;23;20197;-87
2022/11/17 12:10:28;;;;;;;1.85;1.10;;;18.80;57.80;;;;;;5936014;24;20178;-89
2022/11/17 12:13:11;;;;;;;5.85;1.40;;;18.80;58.70;;;;;;5913966;24;20153;-88
2022/11/17 12:16:03;;;;;;;2.72;1.10;;;18.90;58.00;;;;;;5892213;24;20153;-88
2022/11/17 12:18:55;;;;;;;2.08;1.08;;;18.90;57.90;;;;;;5893885;24;20157;-88
2022/11/17 12:28:21;;;;;;;;;;;;;;;;;;;;;
2022/11/17 12:34:43;;;;;;;;;;;;;;;;;;;;;
2022/11/17 12:38:21;;;;;;;;;;;;;;;;;;;;;
2022/11/17 12:41:29;;;;;;;;;;;;;;;;;;;;;
